sensor_id;sensor_type;location;lat;lon;timestamp;pressure;altitude;pressure_sealevel;temperature;humidity
5703;BME280;2876;51.738;10.050;2022-08-01T00:02:46;99154.59;;;20.17;100.00
5703;BME280;2876;51.738;10.050;2022-08-01T00:08:48;99149.69;;;20.19;100.00
5703;BME280;2876;51.738;10.050;2022-08-01T00:14:50;99146.69;;;20.21;100.00
5703;BME280;2876;51.738;10.050;2022-08-01T00:20:52;99145.03;;;20.15;100.00
5703;BME280;2876;51.738;10.050;2022-08-01T00:26:54;99146.13;;;20.14;100.00
5703;BME280;2876;51.738;10.050;2022-08-01T00:32:56;99139.06;;;20.13;100.00
5703;BME280;2876;51.738;10.050;2022-08-01T00:38:58;99141.78;;;20.18;100.00
5703;BME280;2876;51.738;10.050;2022-08-01T00:45:00;99128.41;;;20.16;100.00
5703;BME280;2876;51.738;10.050;2022-08-01T00:51:04;99129.00;;;20.18;100.00
5703;BME280;2876;51.738;10.050;2022-08-01T00:57:07;99118.09;;;20.18;100.00
5703;BME280;2876;51.738;10.050;2022-08-01T01:03:11;99129.00;;;20.18;100.00
5703;BME280;2876;51.738;10.050;2022-08-01T01:09:39;99127.06;;;20.14;100.00
5703;BME280;2876;51.738;10.050;2022-08-01T01:16:04;99118.31;;;20.12;100.00
5703;BME280;2876;51.738;10.050;2022-08-01T01:35:56;99118.91;;;20.14;100.00
5703;BME280;2876;51.738;10.050;2022-08-01T01:42:00;99116.13;;;19.98;100.00
5703;BME280;2876;51.738;10.050;2022-08-01T01:48:04;99114.47;;;20.02;100.00
5703;BME280;2876;51.738;10.050;2022-08-01T01:54:08;99122.31;;;19.84;100.00
5703;BME280;2876;51.738;10.050;2022-08-01T02:00:13;99120.41;;;19.84;100.00
5703;BME280;2876;51.738;10.050;2022-08-01T02:06:16;99126.38;;;19.76;100.00
5703;BME280;2876;51.738;10.050;2022-08-01T02:12:19;99122.88;;;19.43;100.00
5703;BME280;2876;51.738;10.050;2022-08-01T02:18:23;99127.63;;;19.21;100.00
5703;BME280;2876;51.738;10.050;2022-08-01T02:30:50;99128.19;;;19.23;100.00
5703;BME280;2876;51.738;10.050;2022-08-01T02:36:53;99131.31;;;19.05;100.00
5703;BME280;2876;51.738;10.050;2022-08-01T02:43:00;99124.81;;;19.11;100.00
5703;BME280;2876;51.738;10.050;2022-08-01T02:49:07;99137.34;;;19.12;100.00
5703;BME280;2876;51.738;10.050;2022-08-01T02:55:12;99131.84;;;19.07;100.00
5703;BME280;2876;51.738;10.050;2022-08-01T03:01:16;99133.28;;;19.14;100.00
5703;BME280;2876;51.738;10.050;2022-08-01T03:07:21;99144.44;;;19.13;100.00
5703;BME280;2876;51.738;10.050;2022-08-01T03:13:35;99143.13;;;19.20;100.00
5703;BME280;2876;51.738;10.050;2022-08-01T03:19:39;99143.63;;;19.12;100.00
5703;BME280;2876;51.738;10.050;2022-08-01T03:25:43;99141.56;;;18.97;100.00
5703;BME280;2876;51.738;10.050;2022-08-01T03:31:46;99152.84;;;19.11;100.00
5703;BME280;2876;51.738;10.050;2022-08-01T03:37:53;99155.94;;;18.93;100.00
5703;BME280;2876;51.738;10.050;2022-08-01T03:44:21;99149.13;;;18.90;100.00
5703;BME280;2876;51.738;10.050;2022-08-01T03:50:25;99139.50;;;18.78;100.00
5703;BME280;2876;51.738;10.050;2022-08-01T03:56:30;99152.47;;;19.02;100.00
5703;BME280;2876;51.738;10.050;2022-08-01T04:02:34;99151.19;;;19.10;100.00
5703;BME280;2876;51.738;10.050;2022-08-01T04:08:39;99154.56;;;18.90;100.00
5703;BME280;2876;51.738;10.050;2022-08-01T04:14:41;99157.28;;;18.90;100.00
5703;BME280;2876;51.738;10.050;2022-08-01T04:20:45;99175.22;;;18.91;100.00
5703;BME280;2876;51.738;10.050;2022-08-01T04:26:48;99174.22;;;19.02;100.00
5703;BME280;2876;51.738;10.050;2022-08-01T04:32:55;99174.00;;;19.04;100.00
5703;BME280;2876;51.738;10.050;2022-08-01T04:39:00;99183.78;;;19.05;100.00
5703;BME280;2876;51.738;10.050;2022-08-01T04:45:04;99184.53;;;18.95;100.00
5703;BME280;2876;51.738;10.050;2022-08-01T04:51:14;99195.22;;;19.07;100.00
5703;BME280;2876;51.738;10.050;2022-08-01T04:57:17;99205.97;;;19.24;100.00
5703;BME280;2876;51.738;10.050;2022-08-01T05:03:19;99217.19;;;19.33;100.00
5703;BME280;2876;51.738;10.050;2022-08-01T05:09:21;99220.38;;;19.24;100.00
5703;BME280;2876;51.738;10.050;2022-08-01T05:15:23;99225.34;;;19.33;100.00
5703;BME280;2876;51.738;10.050;2022-08-01T05:21:25;99222.94;;;19.36;100.00
5703;BME280;2876;51.738;10.050;2022-08-01T05:27:28;99226.00;;;19.45;100.00
5703;BME280;2876;51.738;10.050;2022-08-01T05:33:31;99230.31;;;19.41;100.00
5703;BME280;2876;51.738;10.050;2022-08-01T05:39:33;99232.91;;;19.58;100.00
5703;BME280;2876;51.738;10.050;2022-08-01T05:45:35;99233.06;;;19.78;100.00
5703;BME280;2876;51.738;10.050;2022-08-01T05:51:38;99233.09;;;19.83;100.00
5703;BME280;2876;51.738;10.050;2022-08-01T05:57:40;99239.69;;;19.92;100.00
5703;BME280;2876;51.738;10.050;2022-08-01T06:03:42;99250.44;;;20.14;100.00
5703;BME280;2876;51.738;10.050;2022-08-01T06:09:44;99241.91;;;20.48;99.96
5703;BME280;2876;51.738;10.050;2022-08-01T06:15:47;99252.84;;;20.53;100.00
5703;BME280;2876;51.738;10.050;2022-08-01T06:21:49;99255.34;;;20.70;99.51
5703;BME280;2876;51.738;10.050;2022-08-01T06:27:51;99257.22;;;20.59;98.86
5703;BME280;2876;51.738;10.050;2022-08-01T06:33:53;99258.31;;;20.58;99.09
5703;BME280;2876;51.738;10.050;2022-08-01T06:39:55;99267.72;;;21.08;95.45
5703;BME280;2876;51.738;10.050;2022-08-01T06:45:57;99267.94;;;20.86;95.56
5703;BME280;2876;51.738;10.050;2022-08-01T06:51:59;99277.66;;;20.62;96.37
5703;BME280;2876;51.738;10.050;2022-08-01T06:58:02;99274.50;;;20.95;96.14
5703;BME280;2876;51.738;10.050;2022-08-01T07:04:04;99272.69;;;21.47;92.94
5703;BME280;2876;51.738;10.050;2022-08-01T07:10:07;99275.13;;;22.04;89.93
5703;BME280;2876;51.738;10.050;2022-08-01T07:16:10;99271.81;;;22.28;87.83
5703;BME280;2876;51.738;10.050;2022-08-01T07:22:12;99275.41;;;22.13;86.72
5703;BME280;2876;51.738;10.050;2022-08-01T07:28:24;99285.53;;;21.57;88.15
5703;BME280;2876;51.738;10.050;2022-08-01T07:34:26;99283.00;;;21.09;92.69
5703;BME280;2876;51.738;10.050;2022-08-01T07:40:28;99283.78;;;20.89;93.10
5703;BME280;2876;51.738;10.050;2022-08-01T07:46:30;99281.59;;;21.01;91.79
5703;BME280;2876;51.738;10.050;2022-08-01T07:52:32;99292.63;;;21.52;89.22
5703;BME280;2876;51.738;10.050;2022-08-01T07:58:35;99303.00;;;21.71;88.49
5703;BME280;2876;51.738;10.050;2022-08-01T08:04:37;99299.97;;;21.93;87.01
5703;BME280;2876;51.738;10.050;2022-08-01T08:10:39;99296.16;;;22.19;85.82
5703;BME280;2876;51.738;10.050;2022-08-01T08:16:42;99309.66;;;22.65;82.35
5703;BME280;2876;51.738;10.050;2022-08-01T08:22:44;99315.00;;;22.31;82.97
5703;BME280;2876;51.738;10.050;2022-08-01T08:28:46;99314.69;;;22.33;83.79
5703;BME280;2876;51.738;10.050;2022-08-01T08:34:48;99312.75;;;22.43;81.61
5703;BME280;2876;51.738;10.050;2022-08-01T08:40:51;99317.16;;;22.39;81.92
5703;BME280;2876;51.738;10.050;2022-08-01T08:46:55;99324.25;;;22.45;81.21
5703;BME280;2876;51.738;10.050;2022-08-01T08:53:00;99330.00;;;22.44;80.44
5703;BME280;2876;51.738;10.050;2022-08-01T08:59:07;99330.56;;;22.36;80.68
5703;BME280;2876;51.738;10.050;2022-08-01T09:05:10;99334.00;;;22.62;79.84
5703;BME280;2876;51.738;10.050;2022-08-01T09:11:20;99336.53;;;22.48;79.79
5703;BME280;2876;51.738;10.050;2022-08-01T09:17:24;99347.38;;;22.78;78.15
5703;BME280;2876;51.738;10.050;2022-08-01T09:23:37;99346.56;;;22.73;78.91
5703;BME280;2876;51.738;10.050;2022-08-01T09:30:14;99353.13;;;22.77;78.06
5703;BME280;2876;51.738;10.050;2022-08-01T09:36:23;99352.19;;;23.07;76.53
5703;BME280;2876;51.738;10.050;2022-08-01T09:42:26;99361.22;;;23.13;76.22
5703;BME280;2876;51.738;10.050;2022-08-01T09:48:30;99363.88;;;23.23;77.18
5703;BME280;2876;51.738;10.050;2022-08-01T09:54:34;99379.28;;;23.09;79.07
5703;BME280;2876;51.738;10.050;2022-08-01T10:00:36;99380.22;;;22.68;80.71
5703;BME280;2876;51.738;10.050;2022-08-01T10:06:49;99393.03;;;22.98;80.01
5703;BME280;2876;51.738;10.050;2022-08-01T10:12:59;99392.88;;;23.29;78.10
5703;BME280;2876;51.738;10.050;2022-08-01T10:19:05;99395.88;;;23.33;76.98
5703;BME280;2876;51.738;10.050;2022-08-01T10:25:13;99397.34;;;23.64;76.55
5703;BME280;2876;51.738;10.050;2022-08-01T10:31:39;99392.75;;;24.57;71.03
5703;BME280;2876;51.738;10.050;2022-08-01T10:37:51;99393.91;;;24.22;72.88
5703;BME280;2876;51.738;10.050;2022-08-01T10:43:58;99382.25;;;24.64;71.72
5703;BME280;2876;51.738;10.050;2022-08-01T10:56:47;99380.72;;;25.01;69.19
5703;BME280;2876;51.738;10.050;2022-08-01T11:03:01;99371.94;;;26.91;63.83
5703;BME280;2876;51.738;10.050;2022-08-01T11:09:24;99367.75;;;27.08;58.16
5703;BME280;2876;51.738;10.050;2022-08-01T11:15:38;99367.44;;;26.68;59.73
5703;BME280;2876;51.738;10.050;2022-08-01T11:34:55;99379.22;;;28.63;52.99
5703;BME280;2876;51.738;10.050;2022-08-01T11:47:16;99382.94;;;26.50;58.50
5703;BME280;2876;51.738;10.050;2022-08-01T11:53:22;99385.31;;;26.05;59.02
5703;BME280;2876;51.738;10.050;2022-08-01T11:59:27;99380.78;;;26.14;57.17
5703;BME280;2876;51.738;10.050;2022-08-01T12:05:38;99362.69;;;26.41;58.50
5703;BME280;2876;51.738;10.050;2022-08-01T12:11:46;99362.97;;;26.72;56.89
5703;BME280;2876;51.738;10.050;2022-08-01T12:17:57;99375.28;;;25.82;59.96
5703;BME280;2876;51.738;10.050;2022-08-01T12:24:02;99370.94;;;25.38;61.91
5703;BME280;2876;51.738;10.050;2022-08-01T12:30:13;99374.56;;;25.52;62.05
5703;BME280;2876;51.738;10.050;2022-08-01T12:36:28;99372.81;;;25.80;59.78
5703;BME280;2876;51.738;10.050;2022-08-01T12:42:31;99363.88;;;26.67;56.12
5703;BME280;2876;51.738;10.050;2022-08-01T12:48:33;99387.75;;;26.99;56.88
5703;BME280;2876;51.738;10.050;2022-08-01T13:01:13;99381.09;;;25.75;61.63
5703;BME280;2876;51.738;10.050;2022-08-01T13:07:15;99380.09;;;26.69;60.29
5703;BME280;2876;51.738;10.050;2022-08-01T13:13:18;99380.91;;;27.11;56.20
5703;BME280;2876;51.738;10.050;2022-08-01T13:19:45;99391.72;;;28.07;53.77
5703;BME280;2876;51.738;10.050;2022-08-01T13:25:54;99385.97;;;27.45;54.59
5703;BME280;2876;51.738;10.050;2022-08-01T13:31:58;99384.28;;;27.08;55.28
5703;BME280;2876;51.738;10.050;2022-08-01T13:38:00;99379.69;;;26.89;55.89
5703;BME280;2876;51.738;10.050;2022-08-01T13:44:02;99392.31;;;25.97;57.58
5703;BME280;2876;51.738;10.050;2022-08-01T13:50:05;99383.84;;;25.56;59.39
5703;BME280;2876;51.738;10.050;2022-08-01T13:56:07;99382.16;;;24.98;63.39
5703;BME280;2876;51.738;10.050;2022-08-01T14:02:09;99396.47;;;24.42;64.76
5703;BME280;2876;51.738;10.050;2022-08-01T14:08:11;99409.44;;;24.32;64.47
5703;BME280;2876;51.738;10.050;2022-08-01T14:14:15;99403.03;;;24.12;64.40
5703;BME280;2876;51.738;10.050;2022-08-01T14:20:17;99417.78;;;23.82;64.98
5703;BME280;2876;51.738;10.050;2022-08-01T14:26:21;99417.63;;;22.88;74.91
5703;BME280;2876;51.738;10.050;2022-08-01T14:32:23;99415.28;;;22.31;80.35
5703;BME280;2876;51.738;10.050;2022-08-01T14:38:29;99415.81;;;22.48;82.18
5703;BME280;2876;51.738;10.050;2022-08-01T14:44:34;99421.53;;;22.72;79.32
5703;BME280;2876;51.738;10.050;2022-08-01T14:50:36;99437.69;;;22.27;79.83
5703;BME280;2876;51.738;10.050;2022-08-01T14:56:39;99446.16;;;22.16;83.70
5703;BME280;2876;51.738;10.050;2022-08-01T15:02:41;99448.06;;;22.15;84.82
5703;BME280;2876;51.738;10.050;2022-08-01T15:08:44;99445.31;;;22.05;87.44
5703;BME280;2876;51.738;10.050;2022-08-01T15:14:46;99442.34;;;22.37;84.57
5703;BME280;2876;51.738;10.050;2022-08-01T15:20:52;99441.25;;;22.53;85.45
5703;BME280;2876;51.738;10.050;2022-08-01T15:26:54;99439.38;;;23.34;80.99
5703;BME280;2876;51.738;10.050;2022-08-01T15:32:56;99434.53;;;24.15;77.08
5703;BME280;2876;51.738;10.050;2022-08-01T15:38:58;99447.72;;;24.47;69.94
5703;BME280;2876;51.738;10.050;2022-08-01T15:45:00;99458.53;;;24.91;67.76
5703;BME280;2876;51.738;10.050;2022-08-01T15:51:02;99462.25;;;25.00;66.49
5703;BME280;2876;51.738;10.050;2022-08-01T15:57:04;99470.28;;;26.58;61.50
5703;BME280;2876;51.738;10.050;2022-08-01T16:03:07;99468.09;;;28.29;55.05
5703;BME280;2876;51.738;10.050;2022-08-01T16:09:10;99466.91;;;30.20;48.95
5703;BME280;2876;51.738;10.050;2022-08-01T16:15:20;99481.56;;;30.21;46.98
5703;BME280;2876;51.738;10.050;2022-08-01T16:21:22;99472.72;;;29.18;49.34
5703;BME280;2876;51.738;10.050;2022-08-01T16:27:25;99468.38;;;30.44;46.44
5703;BME280;2876;51.738;10.050;2022-08-01T16:33:29;99464.69;;;29.48;49.27
5703;BME280;2876;51.738;10.050;2022-08-01T16:39:51;99454.56;;;28.19;51.99
5703;BME280;2876;51.738;10.050;2022-08-01T16:45:57;99448.03;;;27.92;52.04
5703;BME280;2876;51.738;10.050;2022-08-01T16:51:59;99446.28;;;27.46;53.62
5703;BME280;2876;51.738;10.050;2022-08-01T16:58:01;99452.72;;;27.42;53.18
5703;BME280;2876;51.738;10.050;2022-08-01T17:04:03;99448.22;;;27.04;53.79
5703;BME280;2876;51.738;10.050;2022-08-01T17:10:07;99441.91;;;27.45;52.79
5703;BME280;2876;51.738;10.050;2022-08-01T17:16:10;99449.09;;;28.05;50.75
5703;BME280;2876;51.738;10.050;2022-08-01T17:22:12;99446.28;;;27.96;51.13
5703;BME280;2876;51.738;10.050;2022-08-01T17:28:14;99454.75;;;28.67;49.25
5703;BME280;2876;51.738;10.050;2022-08-01T17:34:16;99449.63;;;28.52;49.02
5703;BME280;2876;51.738;10.050;2022-08-01T17:40:18;99452.38;;;28.52;49.03
5703;BME280;2876;51.738;10.050;2022-08-01T17:46:40;99448.19;;;28.10;50.08
5703;BME280;2876;51.738;10.050;2022-08-01T17:52:42;99454.91;;;27.81;51.02
5703;BME280;2876;51.738;10.050;2022-08-01T17:58:44;99461.09;;;26.30;54.73
5703;BME280;2876;51.738;10.050;2022-08-01T18:04:53;99454.91;;;24.96;59.20
5703;BME280;2876;51.738;10.050;2022-08-01T18:10:56;99454.75;;;23.85;61.87
5703;BME280;2876;51.738;10.050;2022-08-01T18:16:58;99457.75;;;23.28;64.42
5703;BME280;2876;51.738;10.050;2022-08-01T18:23:00;99458.81;;;23.38;64.93
5703;BME280;2876;51.738;10.050;2022-08-01T18:29:02;99463.84;;;23.05;66.34
5703;BME280;2876;51.738;10.050;2022-08-01T18:35:05;99472.16;;;22.49;69.32
5703;BME280;2876;51.738;10.050;2022-08-01T18:41:15;99470.19;;;22.65;69.24
5703;BME280;2876;51.738;10.050;2022-08-01T18:47:17;99486.09;;;22.27;69.45
5703;BME280;2876;51.738;10.050;2022-08-01T18:53:19;99477.22;;;21.74;72.73
5703;BME280;2876;51.738;10.050;2022-08-01T18:59:22;99480.63;;;21.39;74.89
5703;BME280;2876;51.738;10.050;2022-08-01T19:05:24;99489.22;;;21.10;76.29
5703;BME280;2876;51.738;10.050;2022-08-01T19:11:26;99494.06;;;20.61;78.64
5703;BME280;2876;51.738;10.050;2022-08-01T19:17:28;99497.81;;;20.49;79.82
5703;BME280;2876;51.738;10.050;2022-08-01T19:23:34;99500.78;;;20.21;81.34
5703;BME280;2876;51.738;10.050;2022-08-01T19:29:56;99511.25;;;20.02;82.85
5703;BME280;2876;51.738;10.050;2022-08-01T19:36:02;99526.28;;;19.83;83.94
5703;BME280;2876;51.738;10.050;2022-08-01T19:42:04;99517.97;;;19.67;84.97
5703;BME280;2876;51.738;10.050;2022-08-01T19:48:07;99519.34;;;19.70;85.69
5703;BME280;2876;51.738;10.050;2022-08-01T19:54:10;99528.22;;;19.43;86.37
5703;BME280;2876;51.738;10.050;2022-08-01T20:00:13;99544.38;;;19.11;87.83
5703;BME280;2876;51.738;10.050;2022-08-01T20:06:29;99546.47;;;19.04;88.79
5703;BME280;2876;51.738;10.050;2022-08-01T20:12:32;99537.66;;;18.63;90.64
5703;BME280;2876;51.738;10.050;2022-08-01T20:18:35;99550.41;;;18.46;91.33
5703;BME280;2876;51.738;10.050;2022-08-01T20:24:40;99552.75;;;18.25;92.07
5703;BME280;2876;51.738;10.050;2022-08-01T20:30:44;99559.16;;;18.19;91.96
5703;BME280;2876;51.738;10.050;2022-08-01T20:36:48;99563.25;;;18.05;92.60
5703;BME280;2876;51.738;10.050;2022-08-01T20:42:58;99567.59;;;17.78;93.92
5703;BME280;2876;51.738;10.050;2022-08-01T20:49:00;99555.56;;;17.73;96.18
5703;BME280;2876;51.738;10.050;2022-08-01T20:55:04;99572.19;;;17.65;95.95
5703;BME280;2876;51.738;10.050;2022-08-01T21:01:06;99569.63;;;17.59;95.77
5703;BME280;2876;51.738;10.050;2022-08-01T21:13:42;99585.81;;;17.42;96.68
5703;BME280;2876;51.738;10.050;2022-08-01T21:19:52;99582.38;;;17.46;97.29
5703;BME280;2876;51.738;10.050;2022-08-01T21:25:58;99597.25;;;17.32;97.72
5703;BME280;2876;51.738;10.050;2022-08-01T21:32:03;99604.31;;;17.33;97.70
5703;BME280;2876;51.738;10.050;2022-08-01T21:38:15;99611.75;;;17.38;98.18
5703;BME280;2876;51.738;10.050;2022-08-01T21:44:19;99614.81;;;17.41;98.84
5703;BME280;2876;51.738;10.050;2022-08-01T21:50:49;99598.78;;;17.40;100.00
5703;BME280;2876;51.738;10.050;2022-08-01T22:03:34;99608.78;;;17.39;100.00
5703;BME280;2876;51.738;10.050;2022-08-01T22:09:38;99599.59;;;17.29;99.22
5703;BME280;2876;51.738;10.050;2022-08-01T22:15:44;99598.09;;;17.09;99.57
5703;BME280;2876;51.738;10.050;2022-08-01T22:21:46;99596.28;;;17.03;98.77
5703;BME280;2876;51.738;10.050;2022-08-01T22:27:50;99593.59;;;16.91;98.64
5703;BME280;2876;51.738;10.050;2022-08-01T22:34:11;99574.38;;;16.81;97.89
5703;BME280;2876;51.738;10.050;2022-08-01T22:40:14;99567.03;;;16.70;97.53
5703;BME280;2876;51.738;10.050;2022-08-01T22:46:47;99567.84;;;16.59;97.54
5703;BME280;2876;51.738;10.050;2022-08-01T22:59:22;99569.47;;;16.48;96.05
5703;BME280;2876;51.738;10.050;2022-08-01T23:06:03;99567.50;;;16.25;96.59
5703;BME280;2876;51.738;10.050;2022-08-01T23:12:08;99569.97;;;16.15;97.06
5703;BME280;2876;51.738;10.050;2022-08-01T23:18:11;99578.75;;;16.10;97.36
5703;BME280;2876;51.738;10.050;2022-08-01T23:24:14;99580.06;;;15.89;97.47
5703;BME280;2876;51.738;10.050;2022-08-01T23:30:17;99585.72;;;15.88;97.36
5703;BME280;2876;51.738;10.050;2022-08-01T23:36:19;99586.63;;;15.63;98.72
5703;BME280;2876;51.738;10.050;2022-08-01T23:42:21;99589.34;;;15.45;99.56
5703;BME280;2876;51.738;10.050;2022-08-01T23:48:23;99591.34;;;15.31;100.00
5703;BME280;2876;51.738;10.050;2022-08-01T23:54:26;99582.19;;;15.32;100.00
